PWSweather.com
Personal Weather Stations
Station Observations
KOHSOUTH7
Southington, OH 44470

Southington, OH 44470

Lat: 41.2675896, Lon: -80.9543941

Elevation: 915

Station Type: Lacrosse 2813UIT

High Low Average
Temperature 44.3°F6.8°C 28.1°F-2.2°C 34.5°F1.4°C
Dew Point 38.2°F3.4°C 18.4°F-7.6°C 26.1°F-3.3°C
Winds 7.9 mph 12.7 kmh Calm Calm 2.0 mph S3.2 kmh S
Wind Gusts 13.4 mph21.6 kmh -- 4.0 mph6.4 kmh
Humidity 87% 50% 71%
Pressure 30.18 in1022.0 mb 29.72 in1006.4 mb -
Precipitation 0.07 in1.8 mm - -
Hour Temp Dew Point Humidity Winds Wind Gusts Pressure Precip Precip Rate Daily Precip Total
12:00 AM 27.9°F-2.3°C 16.9°F-8.4°C 63% 0.7 mph ENE1.1 kmh ENE 0.9 mph1.4 kmh 30.18 in1022.0 mb 0.00 in0.0 mm 0.00 in/hr0.0 mm/hr 0.00 in0.0 mm
12:05 AM 27.9°F-2.3°C 16.9°F-8.4°C 63% 0.4 mph ENE0.6 kmh ENE 0.9 mph1.4 kmh 30.18 in1022.0 mb 0.00 in0.0 mm 0.00 in/hr0.0 mm/hr 0.00 in0.0 mm
12:10 AM 27.9°F-2.3°C 17.3°F-8.2°C 64% 0.8 mph E1.3 kmh E 1.1 mph1.8 kmh 30.18 in1022.0 mb 0.00 in0.0 mm 0.00 in/hr0.0 mm/hr 0.00 in0.0 mm
12:15 AM 28.1°F-2.2°C 17.5°F-8.1°C 64% 0.8 mph ESE1.3 kmh ESE 1.1 mph1.8 kmh 30.18 in1022.0 mb 0.00 in0.0 mm 0.00 in/hr0.0 mm/hr 0.00 in0.0 mm
12:20 AM 28.3°F-2.1°C 17.6°F-8.0°C 64% 0.4 mph SE0.6 kmh SE 1.1 mph1.8 kmh 30.18 in1022.0 mb 0.00 in0.0 mm 0.00 in/hr0.0 mm/hr 0.00 in0.0 mm
12:25 AM 28.4°F-2.0°C 17.8°F-7.9°C 64% Calm Calm 0.9 mph1.4 kmh 30.18 in1022.0 mb 0.00 in0.0 mm 0.00 in/hr0.0 mm/hr 0.00 in0.0 mm
12:30 AM 28.4°F-2.0°C 17.8°F-7.9°C 64% Calm Calm -- 30.17 in1021.7 mb 0.00 in0.0 mm 0.00 in/hr0.0 mm/hr 0.00 in0.0 mm
12:35 AM 28.4°F-2.0°C 17.8°F-7.9°C 64% Calm Calm -- 30.18 in1022.0 mb 0.00 in0.0 mm 0.00 in/hr0.0 mm/hr 0.00 in0.0 mm
12:40 AM 28.4°F-2.0°C 18.2°F-7.7°C 65% Calm Calm -- 30.18 in1022.0 mb 0.00 in0.0 mm 0.00 in/hr0.0 mm/hr 0.00 in0.0 mm
12:45 AM 28.4°F-2.0°C 18.2°F-7.7°C 65% 0.3 mph WNW0.5 kmh WNW 0.4 mph0.6 kmh 30.18 in1022.0 mb 0.00 in0.0 mm 0.00 in/hr0.0 mm/hr 0.00 in0.0 mm
12:50 AM 28.3°F-2.1°C 18.0°F-7.8°C 65% 0.4 mph WNW0.6 kmh WNW 0.7 mph1.1 kmh 30.18 in1022.0 mb 0.00 in0.0 mm 0.00 in/hr0.0 mm/hr 0.00 in0.0 mm
12:55 AM 28.3°F-2.1°C 18.0°F-7.8°C 65% 0.5 mph W0.8 kmh W 0.7 mph1.1 kmh 30.18 in1022.0 mb 0.00 in0.0 mm 0.00 in/hr0.0 mm/hr 0.00 in0.0 mm
01:00 AM 28.3°F-2.1°C 18.4°F-7.6°C 66% Calm Calm 0.7 mph1.1 kmh 30.18 in1022.0 mb 0.00 in0.0 mm 0.00 in/hr0.0 mm/hr 0.00 in0.0 mm
01:05 AM 28.4°F-2.0°C 18.5°F-7.5°C 66% Calm Calm 0.7 mph1.1 kmh 30.18 in1022.0 mb 0.00 in0.0 mm 0.00 in/hr0.0 mm/hr 0.00 in0.0 mm
01:10 AM 28.4°F-2.0°C 18.5°F-7.5°C 66% Calm Calm -- 30.18 in1022.0 mb 0.00 in0.0 mm 0.00 in/hr0.0 mm/hr 0.00 in0.0 mm
01:16 AM 28.4°F-2.0°C 18.5°F-7.5°C 66% Calm Calm -- 30.18 in1022.0 mb 0.00 in0.0 mm 0.00 in/hr0.0 mm/hr 0.00 in0.0 mm
01:21 AM 28.4°F-2.0°C 18.5°F-7.5°C 66% Calm Calm -- 30.18 in1022.0 mb 0.00 in0.0 mm 0.00 in/hr0.0 mm/hr 0.00 in0.0 mm
01:26 AM 28.4°F-2.0°C 18.9°F-7.3°C 67% 0.2 mph W0.3 kmh W 0.2 mph0.3 kmh 30.18 in1022.0 mb 0.00 in0.0 mm 0.00 in/hr0.0 mm/hr 0.00 in0.0 mm
01:31 AM 28.4°F-2.0°C 18.9°F-7.3°C 67% Calm Calm 0.2 mph0.3 kmh 30.18 in1022.0 mb 0.00 in0.0 mm 0.00 in/hr0.0 mm/hr 0.00 in0.0 mm
01:36 AM 28.4°F-2.0°C 19.3°F-7.1°C 68% 0.4 mph W0.6 kmh W 0.4 mph0.6 kmh 30.17 in1021.7 mb 0.00 in0.0 mm 0.00 in/hr0.0 mm/hr 0.00 in0.0 mm
01:41 AM 28.4°F-2.0°C 19.3°F-7.1°C 68% Calm Calm 0.4 mph0.6 kmh 30.17 in1021.7 mb 0.00 in0.0 mm 0.00 in/hr0.0 mm/hr 0.00 in0.0 mm
01:46 AM 28.4°F-2.0°C 19.6°F-6.9°C 69% Calm Calm -- 30.17 in1021.7 mb 0.00 in0.0 mm 0.00 in/hr0.0 mm/hr 0.00 in0.0 mm
01:51 AM 28.4°F-2.0°C 19.6°F-6.9°C 69% Calm Calm -- 30.17 in1021.7 mb 0.00 in0.0 mm 0.00 in/hr0.0 mm/hr 0.00 in0.0 mm
01:56 AM 28.4°F-2.0°C 19.6°F-6.9°C 69% 0.4 mph SSE0.6 kmh SSE 0.4 mph0.6 kmh 30.16 in1021.3 mb 0.00 in0.0 mm 0.00 in/hr0.0 mm/hr 0.00 in0.0 mm
02:01 AM 28.4°F-2.0°C 19.6°F-6.9°C 69% Calm Calm 0.4 mph0.6 kmh 30.16 in1021.3 mb 0.00 in0.0 mm 0.00 in/hr0.0 mm/hr 0.00 in0.0 mm
02:06 AM 28.4°F-2.0°C 19.6°F-6.9°C 69% 0.7 mph E1.1 kmh E 0.9 mph1.4 kmh 30.15 in1021.0 mb 0.00 in0.0 mm 0.00 in/hr0.0 mm/hr 0.00 in0.0 mm
02:11 AM 28.3°F-2.1°C 19.4°F-7.0°C 69% 0.4 mph E0.6 kmh E 0.9 mph1.4 kmh 30.15 in1021.0 mb 0.00 in0.0 mm 0.00 in/hr0.0 mm/hr 0.00 in0.0 mm
02:16 AM 28.1°F-2.2°C 19.3°F-7.1°C 69% 0.6 mph E1.0 kmh E 0.9 mph1.4 kmh 30.14 in1020.7 mb 0.00 in0.0 mm 0.00 in/hr0.0 mm/hr 0.00 in0.0 mm
02:21 AM 28.1°F-2.2°C 19.3°F-7.1°C 69% 0.6 mph E1.0 kmh E 1.1 mph1.8 kmh 30.14 in1020.7 mb 0.00 in0.0 mm 0.00 in/hr0.0 mm/hr 0.00 in0.0 mm
02:26 AM 28.1°F-2.2°C 19.3°F-7.1°C 69% 0.5 mph E0.8 kmh E 1.1 mph1.8 kmh 30.14 in1020.7 mb 0.00 in0.0 mm 0.00 in/hr0.0 mm/hr 0.00 in0.0 mm
02:31 AM 28.3°F-2.1°C 19.4°F-7.0°C 69% 0.9 mph SE1.4 kmh SE 1.1 mph1.8 kmh 30.14 in1020.7 mb 0.00 in0.0 mm 0.00 in/hr0.0 mm/hr 0.00 in0.0 mm
02:36 AM 28.4°F-2.0°C 19.6°F-6.9°C 69% 0.9 mph ESE1.4 kmh ESE 1.3 mph2.1 kmh 30.13 in1020.3 mb 0.00 in0.0 mm 0.00 in/hr0.0 mm/hr 0.00 in0.0 mm
02:41 AM 28.6°F-1.9°C 19.5°F-6.9°C 68% 0.9 mph SE1.4 kmh SE 1.3 mph2.1 kmh 30.13 in1020.3 mb 0.00 in0.0 mm 0.00 in/hr0.0 mm/hr 0.00 in0.0 mm
02:46 AM 28.8°F-1.8°C 19.6°F-6.9°C 68% 1.1 mph ESE1.8 kmh ESE 1.1 mph1.8 kmh 30.13 in1020.3 mb 0.00 in0.0 mm 0.00 in/hr0.0 mm/hr 0.00 in0.0 mm
02:51 AM 29.0°F-1.7°C 19.7°F-6.8°C 68% 0.9 mph SE1.4 kmh SE 1.1 mph1.8 kmh 30.12 in1020.0 mb 0.00 in0.0 mm 0.00 in/hr0.0 mm/hr 0.00 in0.0 mm
02:56 AM 29.0°F-1.7°C 19.4°F-7.0°C 67% 0.8 mph SE1.3 kmh SE 1.1 mph1.8 kmh 30.12 in1020.0 mb 0.00 in0.0 mm 0.00 in/hr0.0 mm/hr 0.00 in0.0 mm
03:01 AM 29.0°F-1.7°C 19.4°F-7.0°C 67% 0.8 mph SE1.3 kmh SE 1.8 mph2.9 kmh 30.12 in1020.0 mb 0.00 in0.0 mm 0.00 in/hr0.0 mm/hr 0.00 in0.0 mm
03:06 AM 29.0°F-1.7°C 19.4°F-7.0°C 67% 1.2 mph SE1.9 kmh SE 1.8 mph2.9 kmh 30.12 in1020.0 mb 0.00 in0.0 mm 0.00 in/hr0.0 mm/hr 0.00 in0.0 mm
03:11 AM 29.0°F-1.7°C 19.7°F-6.8°C 68% 1.4 mph SE2.3 kmh SE 2.2 mph3.5 kmh 30.11 in1019.6 mb 0.00 in0.0 mm 0.00 in/hr0.0 mm/hr 0.00 in0.0 mm
03:16 AM 29.2°F-1.6°C 19.5°F-6.9°C 67% 2.0 mph SE3.2 kmh SE 3.1 mph5.0 kmh 30.11 in1019.6 mb 0.00 in0.0 mm 0.00 in/hr0.0 mm/hr 0.00 in0.0 mm
03:21 AM 29.2°F-1.6°C 19.5°F-6.9°C 67% 2.2 mph SE3.5 kmh SE 3.1 mph5.0 kmh 30.10 in1019.3 mb 0.00 in0.0 mm 0.00 in/hr0.0 mm/hr 0.00 in0.0 mm
03:26 AM 29.3°F-1.5°C 19.7°F-6.8°C 67% 2.3 mph ESE3.7 kmh ESE 3.1 mph5.0 kmh 30.09 in1019.0 mb 0.00 in0.0 mm 0.00 in/hr0.0 mm/hr 0.00 in0.0 mm
03:31 AM 29.3°F-1.5°C 19.7°F-6.8°C 67% 2.2 mph ESE3.5 kmh ESE 3.6 mph5.8 kmh 30.09 in1019.0 mb 0.00 in0.0 mm 0.00 in/hr0.0 mm/hr 0.00 in0.0 mm
03:36 AM 29.3°F-1.5°C 19.7°F-6.8°C 67% 0.8 mph SE1.3 kmh SE 3.6 mph5.8 kmh 30.09 in1019.0 mb 0.00 in0.0 mm 0.00 in/hr0.0 mm/hr 0.00 in0.0 mm
03:41 AM 29.5°F-1.4°C 19.5°F-6.9°C 66% Calm Calm 1.8 mph2.9 kmh 30.09 in1019.0 mb 0.00 in0.0 mm 0.00 in/hr0.0 mm/hr 0.00 in0.0 mm
03:46 AM 29.5°F-1.4°C 19.5°F-6.9°C 66% 0.5 mph ESE0.8 kmh ESE 1.6 mph2.6 kmh 30.09 in1019.0 mb 0.00 in0.0 mm 0.00 in/hr0.0 mm/hr 0.00 in0.0 mm
03:51 AM 29.5°F-1.4°C 19.5°F-6.9°C 66% 0.9 mph SE1.4 kmh SE 1.1 mph1.8 kmh 30.08 in1018.6 mb 0.00 in0.0 mm 0.00 in/hr0.0 mm/hr 0.00 in0.0 mm
03:56 AM 29.5°F-1.4°C 19.5°F-6.9°C 66% 1.1 mph SE1.8 kmh SE 1.3 mph2.1 kmh 30.08 in1018.6 mb 0.00 in0.0 mm 0.00 in/hr0.0 mm/hr 0.00 in0.0 mm
04:01 AM 29.5°F-1.4°C 19.5°F-6.9°C 66% 1.1 mph ESE1.8 kmh ESE 1.8 mph2.9 kmh 30.08 in1018.6 mb 0.00 in0.0 mm 0.00 in/hr0.0 mm/hr 0.00 in0.0 mm
04:06 AM 29.5°F-1.4°C 19.5°F-6.9°C 66% 0.8 mph ESE1.3 kmh ESE 1.8 mph2.9 kmh 30.08 in1018.6 mb 0.00 in0.0 mm 0.00 in/hr0.0 mm/hr 0.00 in0.0 mm
04:11 AM 29.5°F-1.4°C 19.5°F-6.9°C 66% 0.2 mph SE0.3 kmh SE 1.6 mph2.6 kmh 30.07 in1018.3 mb 0.00 in0.0 mm 0.00 in/hr0.0 mm/hr 0.00 in0.0 mm
04:16 AM 29.5°F-1.4°C 19.5°F-6.9°C 66% 0.7 mph SE1.1 kmh SE 1.6 mph2.6 kmh 30.07 in1018.3 mb 0.00 in0.0 mm 0.00 in/hr0.0 mm/hr 0.00 in0.0 mm
04:21 AM 29.5°F-1.4°C 19.5°F-6.9°C 66% 0.2 mph ESE0.3 kmh ESE 0.9 mph1.4 kmh 30.07 in1018.3 mb 0.00 in0.0 mm 0.00 in/hr0.0 mm/hr 0.00 in0.0 mm
04:26 AM 29.5°F-1.4°C 19.5°F-6.9°C 66% 0.4 mph ESE0.6 kmh ESE 0.9 mph1.4 kmh 30.06 in1017.9 mb 0.00 in0.0 mm 0.00 in/hr0.0 mm/hr 0.00 in0.0 mm
04:31 AM 29.5°F-1.4°C 19.5°F-6.9°C 66% Calm Calm 0.7 mph1.1 kmh 30.07 in1018.3 mb 0.00 in0.0 mm 0.00 in/hr0.0 mm/hr 0.00 in0.0 mm
04:36 AM 29.5°F-1.4°C 19.5°F-6.9°C 66% Calm Calm 0.7 mph1.1 kmh 30.06 in1017.9 mb 0.00 in0.0 mm 0.00 in/hr0.0 mm/hr 0.00 in0.0 mm
04:41 AM 29.5°F-1.4°C 19.5°F-6.9°C 66% Calm Calm -- 30.06 in1017.9 mb 0.00 in0.0 mm 0.00 in/hr0.0 mm/hr 0.00 in0.0 mm
04:46 AM 29.5°F-1.4°C 19.5°F-6.9°C 66% Calm Calm -- 30.06 in1017.9 mb 0.00 in0.0 mm 0.00 in/hr0.0 mm/hr 0.00 in0.0 mm
04:51 AM 29.3°F-1.5°C 19.4°F-7.0°C 66% Calm Calm -- 30.06 in1017.9 mb 0.00 in0.0 mm 0.00 in/hr0.0 mm/hr 0.00 in0.0 mm
04:56 AM 29.2°F-1.6°C 19.2°F-7.1°C 66% Calm Calm -- 30.06 in1017.9 mb 0.00 in0.0 mm 0.00 in/hr0.0 mm/hr 0.00 in0.0 mm
05:01 AM 29.2°F-1.6°C 19.2°F-7.1°C 66% Calm Calm -- 30.05 in1017.6 mb 0.00 in0.0 mm 0.00 in/hr0.0 mm/hr 0.00 in0.0 mm
05:06 AM 29.2°F-1.6°C 19.2°F-7.1°C 66% 0.5 mph E0.8 kmh E 0.9 mph1.4 kmh 30.05 in1017.6 mb 0.00 in0.0 mm 0.00 in/hr0.0 mm/hr 0.00 in0.0 mm
05:11 AM 29.2°F-1.6°C 19.2°F-7.1°C 66% 0.4 mph E0.6 kmh E 0.9 mph1.4 kmh 30.04 in1017.3 mb 0.00 in0.0 mm 0.00 in/hr0.0 mm/hr 0.00 in0.0 mm
05:16 AM 29.0°F-1.7°C 19.0°F-7.2°C 66% 0.4 mph E0.6 kmh E 1.1 mph1.8 kmh 30.04 in1017.3 mb 0.00 in0.0 mm 0.00 in/hr0.0 mm/hr 0.00 in0.0 mm
05:21 AM 28.8°F-1.8°C 19.3°F-7.1°C 67% 0.7 mph SE1.1 kmh SE 1.1 mph1.8 kmh 30.03 in1016.9 mb 0.00 in0.0 mm 0.00 in/hr0.0 mm/hr 0.00 in0.0 mm
05:26 AM 28.4°F-2.0°C 18.9°F-7.3°C 67% 0.9 mph ESE1.4 kmh ESE 1.1 mph1.8 kmh 30.03 in1016.9 mb 0.00 in0.0 mm 0.00 in/hr0.0 mm/hr 0.00 in0.0 mm
05:31 AM 28.3°F-2.1°C 19.1°F-7.2°C 68% 1.3 mph ESE2.1 kmh ESE 1.6 mph2.6 kmh 30.03 in1016.9 mb 0.00 in0.0 mm 0.00 in/hr0.0 mm/hr 0.00 in0.0 mm
05:36 AM 28.1°F-2.2°C 19.3°F-7.1°C 69% 0.5 mph SE0.8 kmh SE 1.6 mph2.6 kmh 30.03 in1016.9 mb 0.00 in0.0 mm 0.00 in/hr0.0 mm/hr 0.00 in0.0 mm
05:41 AM 28.1°F-2.2°C 19.3°F-7.1°C 69% 0.6 mph SE1.0 kmh SE 1.3 mph2.1 kmh 30.03 in1016.9 mb 0.00 in0.0 mm 0.00 in/hr0.0 mm/hr 0.00 in0.0 mm
05:46 AM 28.3°F-2.1°C 19.4°F-7.0°C 69% 0.8 mph SE1.3 kmh SE 1.1 mph1.8 kmh 30.02 in1016.6 mb 0.00 in0.0 mm 0.00 in/hr0.0 mm/hr 0.00 in0.0 mm
05:51 AM 28.4°F-2.0°C 19.6°F-6.9°C 69% 0.7 mph SE1.1 kmh SE 1.8 mph2.9 kmh 30.02 in1016.6 mb 0.00 in0.0 mm 0.00 in/hr0.0 mm/hr 0.00 in0.0 mm
05:56 AM 28.4°F-2.0°C 19.6°F-6.9°C 69% 0.8 mph ESE1.3 kmh ESE 1.8 mph2.9 kmh 30.02 in1016.6 mb 0.00 in0.0 mm 0.00 in/hr0.0 mm/hr 0.00 in0.0 mm
06:01 AM 28.6°F-1.9°C 19.5°F-6.9°C 68% 0.8 mph ESE1.3 kmh ESE 1.1 mph1.8 kmh 30.02 in1016.6 mb 0.00 in0.0 mm 0.00 in/hr0.0 mm/hr 0.00 in0.0 mm
06:06 AM 28.6°F-1.9°C 19.5°F-6.9°C 68% 0.6 mph SE1.0 kmh SE 1.6 mph2.6 kmh 30.01 in1016.3 mb 0.00 in0.0 mm 0.00 in/hr0.0 mm/hr 0.00 in0.0 mm
06:11 AM 28.6°F-1.9°C 19.5°F-6.9°C 68% 0.6 mph SE1.0 kmh SE 1.6 mph2.6 kmh 30.01 in1016.3 mb 0.00 in0.0 mm 0.00 in/hr0.0 mm/hr 0.00 in0.0 mm
06:16 AM 28.4°F-2.0°C 19.3°F-7.1°C 68% 0.4 mph SE0.6 kmh SE 1.1 mph1.8 kmh 30.01 in1016.3 mb 0.00 in0.0 mm 0.00 in/hr0.0 mm/hr 0.00 in0.0 mm
06:22 AM 28.4°F-2.0°C 19.3°F-7.1°C 68% 1.0 mph SE1.6 kmh SE 1.6 mph2.6 kmh 30.01 in1016.3 mb 0.00 in0.0 mm 0.00 in/hr0.0 mm/hr 0.00 in0.0 mm
06:27 AM 28.4°F-2.0°C 19.3°F-7.1°C 68% 1.7 mph SE2.7 kmh SE 2.5 mph4.0 kmh 30.00 in1015.9 mb 0.00 in0.0 mm 0.00 in/hr0.0 mm/hr 0.00 in0.0 mm
06:32 AM 28.4°F-2.0°C 19.6°F-6.9°C 69% 1.4 mph SE2.3 kmh SE 2.5 mph4.0 kmh 30.00 in1015.9 mb 0.00 in0.0 mm 0.00 in/hr0.0 mm/hr 0.00 in0.0 mm
06:37 AM 28.4°F-2.0°C 19.6°F-6.9°C 69% 1.1 mph SE1.8 kmh SE 2.2 mph3.5 kmh 30.00 in1015.9 mb 0.00 in0.0 mm 0.00 in/hr0.0 mm/hr 0.00 in0.0 mm
06:42 AM 28.4°F-2.0°C 19.6°F-6.9°C 69% 1.3 mph SE2.1 kmh SE 2.0 mph3.2 kmh 30.00 in1015.9 mb 0.00 in0.0 mm 0.00 in/hr0.0 mm/hr 0.00 in0.0 mm
06:47 AM 28.4°F-2.0°C 19.6°F-6.9°C 69% 0.8 mph SE1.3 kmh SE 2.0 mph3.2 kmh 30.00 in1015.9 mb 0.00 in0.0 mm 0.00 in/hr0.0 mm/hr 0.00 in0.0 mm
06:52 AM 28.6°F-1.9°C 19.8°F-6.8°C 69% 2.2 mph SE3.5 kmh SE 2.7 mph4.3 kmh 29.99 in1015.6 mb 0.00 in0.0 mm 0.00 in/hr0.0 mm/hr 0.00 in0.0 mm
06:57 AM 28.6°F-1.9°C 19.8°F-6.8°C 69% 1.7 mph SE2.7 kmh SE 2.7 mph4.3 kmh 29.99 in1015.6 mb 0.00 in0.0 mm 0.00 in/hr0.0 mm/hr 0.00 in0.0 mm
07:02 AM 28.6°F-1.9°C 19.8°F-6.8°C 69% 1.8 mph SE2.9 kmh SE 2.9 mph4.7 kmh 29.98 in1015.2 mb 0.00 in0.0 mm 0.00 in/hr0.0 mm/hr 0.00 in0.0 mm
07:07 AM 28.8°F-1.8°C 20.0°F-6.7°C 69% 1.6 mph SE2.6 kmh SE 2.9 mph4.7 kmh 29.98 in1015.2 mb 0.00 in0.0 mm 0.00 in/hr0.0 mm/hr 0.00 in0.0 mm
07:12 AM 29.0°F-1.7°C 20.1°F-6.6°C 69% 3.1 mph SE5.0 kmh SE 4.5 mph7.2 kmh 29.98 in1015.2 mb 0.00 in0.0 mm 0.00 in/hr0.0 mm/hr 0.00 in0.0 mm
07:17 AM 29.2°F-1.6°C 20.3°F-6.5°C 69% 1.9 mph SE3.1 kmh SE 4.5 mph7.2 kmh 29.98 in1015.2 mb 0.00 in0.0 mm 0.00 in/hr0.0 mm/hr 0.00 in0.0 mm
07:22 AM 29.3°F-1.5°C 20.4°F-6.4°C 69% 2.3 mph SSE3.7 kmh SSE 3.4 mph5.5 kmh 29.97 in1014.9 mb 0.00 in0.0 mm 0.00 in/hr0.0 mm/hr 0.00 in0.0 mm
07:27 AM 29.7°F-1.3°C 20.4°F-6.4°C 68% 3.3 mph SSE5.3 kmh SSE 4.7 mph7.6 kmh 29.97 in1014.9 mb 0.00 in0.0 mm 0.00 in/hr0.0 mm/hr 0.00 in0.0 mm
07:32 AM 30.1°F-1.1°C 20.3°F-6.5°C 67% 2.4 mph SE3.9 kmh SE 4.7 mph7.6 kmh 29.97 in1014.9 mb 0.00 in0.0 mm 0.00 in/hr0.0 mm/hr 0.00 in0.0 mm
07:37 AM 30.4°F-0.9°C 20.7°F-6.3°C 67% 3.1 mph SSE5.0 kmh SSE 4.7 mph7.6 kmh 29.97 in1014.9 mb 0.00 in0.0 mm 0.00 in/hr0.0 mm/hr 0.00 in0.0 mm
07:42 AM 30.6°F-0.8°C 20.5°F-6.4°C 66% 4.3 mph SE6.9 kmh SE 5.4 mph8.7 kmh 29.96 in1014.6 mb 0.00 in0.0 mm 0.00 in/hr0.0 mm/hr 0.00 in0.0 mm
07:47 AM 30.8°F-0.7°C 20.7°F-6.3°C 66% 3.7 mph SSE6.0 kmh SSE 6.0 mph9.7 kmh 29.96 in1014.6 mb 0.00 in0.0 mm 0.00 in/hr0.0 mm/hr 0.00 in0.0 mm
07:52 AM 31.1°F-0.5°C 21.1°F-6.1°C 66% 5.2 mph SSE8.4 kmh SSE 8.3 mph13.4 kmh 29.96 in1014.6 mb 0.00 in0.0 mm 0.00 in/hr0.0 mm/hr 0.00 in0.0 mm
07:57 AM 31.3°F-0.4°C 21.2°F-6.0°C 66% 4.5 mph SE7.2 kmh SE 8.3 mph13.4 kmh 29.95 in1014.2 mb 0.00 in0.0 mm 0.00 in/hr0.0 mm/hr 0.00 in0.0 mm
08:02 AM 31.7°F-0.2°C 21.2°F-6.0°C 65% 4.6 mph SE7.4 kmh SE 6.9 mph11.1 kmh 29.95 in1014.2 mb 0.00 in0.0 mm 0.00 in/hr0.0 mm/hr 0.00 in0.0 mm
08:07 AM 32.0°F0.0°C 21.2°F-6.0°C 64% 4.8 mph SE7.7 kmh SE 6.9 mph11.1 kmh 29.94 in1013.9 mb 0.00 in0.0 mm 0.00 in/hr0.0 mm/hr 0.00 in0.0 mm
08:12 AM 32.0°F0.0°C 21.2°F-6.0°C 64% 4.3 mph SE6.9 kmh SE 6.9 mph11.1 kmh 29.94 in1013.9 mb 0.00 in0.0 mm 0.00 in/hr0.0 mm/hr 0.00 in0.0 mm
08:17 AM 32.2°F0.1°C 21.4°F-5.9°C 64% 5.9 mph SSE9.5 kmh SSE 7.2 mph11.6 kmh 29.93 in1013.5 mb 0.00 in0.0 mm 0.00 in/hr0.0 mm/hr 0.00 in0.0 mm
08:22 AM 32.4°F0.2°C 21.6°F-5.8°C 64% 5.1 mph SE8.2 kmh SE 7.2 mph11.6 kmh 29.94 in1013.9 mb 0.00 in0.0 mm 0.00 in/hr0.0 mm/hr 0.00 in0.0 mm
08:27 AM 32.6°F0.3°C 21.7°F-5.7°C 64% 3.4 mph SSE5.5 kmh SSE 6.7 mph10.8 kmh 29.94 in1013.9 mb 0.00 in0.0 mm 0.00 in/hr0.0 mm/hr 0.00 in0.0 mm
08:32 AM 32.6°F0.3°C 21.3°F-5.9°C 63% 4.5 mph SSE7.2 kmh SSE 6.7 mph10.8 kmh 29.94 in1013.9 mb 0.00 in0.0 mm 0.00 in/hr0.0 mm/hr 0.00 in0.0 mm
08:37 AM 32.8°F0.4°C 21.5°F-5.8°C 63% 4.3 mph SE6.9 kmh SE 6.0 mph9.7 kmh 29.94 in1013.9 mb 0.00 in0.0 mm 0.00 in/hr0.0 mm/hr 0.00 in0.0 mm
08:42 AM 32.8°F0.4°C 21.2°F-6.0°C 62% 4.3 mph SSE6.9 kmh SSE 6.3 mph10.1 kmh 29.94 in1013.9 mb 0.00 in0.0 mm 0.00 in/hr0.0 mm/hr 0.00 in0.0 mm
08:47 AM 32.9°F0.5°C 21.3°F-5.9°C 62% 4.4 mph SE7.1 kmh SE 6.3 mph10.1 kmh 29.94 in1013.9 mb 0.00 in0.0 mm 0.00 in/hr0.0 mm/hr 0.00 in0.0 mm
08:52 AM 33.1°F0.6°C 21.5°F-5.8°C 62% 3.6 mph S5.8 kmh S 5.4 mph8.7 kmh 29.94 in1013.9 mb 0.00 in0.0 mm 0.00 in/hr0.0 mm/hr 0.00 in0.0 mm
08:57 AM 33.3°F0.7°C 21.7°F-5.7°C 62% 2.1 mph S3.4 kmh S 5.4 mph8.7 kmh 29.94 in1013.9 mb 0.00 in0.0 mm 0.00 in/hr0.0 mm/hr 0.00 in0.0 mm
09:02 AM 33.5°F0.8°C 21.8°F-5.7°C 62% 2.4 mph SE3.9 kmh SE 4.7 mph7.6 kmh 29.94 in1013.9 mb 0.00 in0.0 mm 0.00 in/hr0.0 mm/hr 0.00 in0.0 mm
09:07 AM 33.7°F0.9°C 22.0°F-5.6°C 62% 4.2 mph SSE6.8 kmh SSE 6.9 mph11.1 kmh 29.93 in1013.5 mb 0.00 in0.0 mm 0.00 in/hr0.0 mm/hr 0.00 in0.0 mm
09:12 AM 33.8°F1.0°C 21.8°F-5.7°C 61% 4.1 mph SSE6.6 kmh SSE 6.9 mph11.1 kmh 29.93 in1013.5 mb 0.00 in0.0 mm 0.00 in/hr0.0 mm/hr 0.00 in0.0 mm
09:17 AM 34.0°F1.1°C 22.0°F-5.6°C 61% 3.2 mph SSE5.1 kmh SSE 6.9 mph11.1 kmh 29.93 in1013.5 mb 0.00 in0.0 mm 0.00 in/hr0.0 mm/hr 0.00 in0.0 mm
09:22 AM 34.2°F1.2°C 21.8°F-5.7°C 60% 4.2 mph SE6.8 kmh SE 6.3 mph10.1 kmh 29.92 in1013.2 mb 0.00 in0.0 mm 0.00 in/hr0.0 mm/hr 0.00 in0.0 mm
09:27 AM 34.6°F1.4°C 22.1°F-5.5°C 60% 3.8 mph SSE6.1 kmh SSE 5.8 mph9.3 kmh 29.92 in1013.2 mb 0.00 in0.0 mm 0.00 in/hr0.0 mm/hr 0.00 in0.0 mm
09:32 AM 34.6°F1.4°C 21.2°F-6.0°C 58% 1.5 mph SSE2.4 kmh SSE 5.8 mph9.3 kmh 29.92 in1013.2 mb 0.00 in0.0 mm 0.00 in/hr0.0 mm/hr 0.00 in0.0 mm
09:37 AM 34.9°F1.6°C 22.1°F-5.5°C 59% 2.8 mph S4.5 kmh S 4.0 mph6.4 kmh 29.92 in1013.2 mb 0.00 in0.0 mm 0.00 in/hr0.0 mm/hr 0.00 in0.0 mm
09:42 AM 34.9°F1.6°C 22.1°F-5.5°C 59% 4.3 mph S6.9 kmh S 5.4 mph8.7 kmh 29.91 in1012.9 mb 0.00 in0.0 mm 0.00 in/hr0.0 mm/hr 0.00 in0.0 mm
09:47 AM 35.1°F1.7°C 21.8°F-5.7°C 58% 4.8 mph SE7.7 kmh SE 6.5 mph10.5 kmh 29.91 in1012.9 mb 0.00 in0.0 mm 0.00 in/hr0.0 mm/hr 0.00 in0.0 mm
09:52 AM 35.3°F1.8°C 22.0°F-5.6°C 58% 4.5 mph SE7.2 kmh SE 6.5 mph10.5 kmh 29.90 in1012.5 mb 0.00 in0.0 mm 0.00 in/hr0.0 mm/hr 0.00 in0.0 mm
09:57 AM 35.5°F1.9°C 21.8°F-5.7°C 57% 3.2 mph SSE5.1 kmh SSE 6.5 mph10.5 kmh 29.90 in1012.5 mb 0.00 in0.0 mm 0.00 in/hr0.0 mm/hr 0.00 in0.0 mm
10:02 AM 35.6°F2.0°C 22.0°F-5.6°C 57% 4.1 mph SSE6.6 kmh SSE 6.3 mph10.1 kmh 29.90 in1012.5 mb 0.00 in0.0 mm 0.00 in/hr0.0 mm/hr 0.00 in0.0 mm
10:07 AM 35.6°F2.0°C 22.3°F-5.4°C 58% 3.9 mph SE6.3 kmh SE 6.7 mph10.8 kmh 29.90 in1012.5 mb 0.00 in0.0 mm 0.00 in/hr0.0 mm/hr 0.00 in0.0 mm
10:12 AM 35.8°F2.1°C 21.7°F-5.7°C 56% 3.7 mph S6.0 kmh S 6.7 mph10.8 kmh 29.89 in1012.2 mb 0.00 in0.0 mm 0.00 in/hr0.0 mm/hr 0.00 in0.0 mm
10:17 AM 36.0°F2.2°C 21.8°F-5.7°C 56% 4.5 mph SSE7.2 kmh SSE 6.3 mph10.1 kmh 29.89 in1012.2 mb 0.00 in0.0 mm 0.00 in/hr0.0 mm/hr 0.00 in0.0 mm
10:22 AM 36.4°F2.4°C 22.1°F-5.5°C 56% 2.9 mph SSE4.7 kmh SSE 6.3 mph10.1 kmh 29.89 in1012.2 mb 0.00 in0.0 mm 0.00 in/hr0.0 mm/hr 0.00 in0.0 mm
10:27 AM 36.4°F2.4°C 22.1°F-5.5°C 56% 4.1 mph SSE6.6 kmh SSE 7.4 mph11.9 kmh 29.88 in1011.9 mb 0.00 in0.0 mm 0.00 in/hr0.0 mm/hr 0.00 in0.0 mm
10:32 AM 36.5°F2.5°C 21.9°F-5.6°C 55% 2.8 mph SE4.5 kmh SE 7.4 mph11.9 kmh 29.88 in1011.9 mb 0.00 in0.0 mm 0.00 in/hr0.0 mm/hr 0.00 in0.0 mm
10:37 AM 36.7°F2.6°C 22.1°F-5.5°C 55% 3.9 mph S6.3 kmh S 7.2 mph11.6 kmh 29.88 in1011.9 mb 0.00 in0.0 mm 0.00 in/hr0.0 mm/hr 0.00 in0.0 mm
10:42 AM 36.9°F2.7°C 21.8°F-5.7°C 54% 4.6 mph SSE7.4 kmh SSE 6.9 mph11.1 kmh 29.87 in1011.5 mb 0.00 in0.0 mm 0.00 in/hr0.0 mm/hr 0.00 in0.0 mm
10:47 AM 37.1°F2.8°C 22.0°F-5.6°C 54% 3.0 mph SSE4.8 kmh SSE 6.9 mph11.1 kmh 29.87 in1011.5 mb 0.00 in0.0 mm 0.00 in/hr0.0 mm/hr 0.00 in0.0 mm
10:52 AM 37.3°F2.9°C 22.1°F-5.5°C 54% 4.9 mph SE7.9 kmh SE 8.5 mph13.7 kmh 29.87 in1011.5 mb 0.00 in0.0 mm 0.00 in/hr0.0 mm/hr 0.00 in0.0 mm
10:57 AM 37.4°F3.0°C 21.8°F-5.7°C 53% 3.2 mph S5.1 kmh S 8.5 mph13.7 kmh 29.87 in1011.5 mb 0.00 in0.0 mm 0.00 in/hr0.0 mm/hr 0.00 in0.0 mm
11:02 AM 37.4°F3.0°C 21.4°F-5.9°C 52% 2.1 mph S3.4 kmh S 6.3 mph10.1 kmh 29.86 in1011.2 mb 0.00 in0.0 mm 0.00 in/hr0.0 mm/hr 0.00 in0.0 mm
11:08 AM 37.8°F3.2°C 21.2°F-6.0°C 51% 3.4 mph S5.5 kmh S 5.8 mph9.3 kmh 29.87 in1011.5 mb 0.00 in0.0 mm 0.00 in/hr0.0 mm/hr 0.00 in0.0 mm
11:15 AM 38.0°F3.3°C 21.4°F-5.9°C 51% 3.4 mph S5.5 kmh S 5.4 mph8.7 kmh 29.87 in1011.5 mb 0.00 in0.0 mm 0.00 in/hr0.0 mm/hr 0.00 in0.0 mm
11:21 AM 38.3°F3.5°C 21.3°F-5.9°C 50% 2.5 mph SSW4.0 kmh SSW 5.4 mph8.7 kmh 29.88 in1011.9 mb 0.00 in0.0 mm 0.00 in/hr0.0 mm/hr 0.00 in0.0 mm
11:26 AM 38.5°F3.6°C 21.5°F-5.8°C 50% 1.3 mph S2.1 kmh S 5.1 mph8.2 kmh 29.87 in1011.5 mb 0.00 in0.0 mm 0.00 in/hr0.0 mm/hr 0.00 in0.0 mm
11:31 AM 38.9°F3.8°C 23.9°F-4.5°C 55% 7.9 mph SSW12.7 kmh SSW 13.4 mph21.6 kmh 29.88 in1011.9 mb 0.00 in0.0 mm 0.00 in/hr0.0 mm/hr 0.00 in0.0 mm
11:36 AM 38.5°F3.6°C 24.9°F-3.9°C 58% 7.7 mph SSW12.4 kmh SSW 13.4 mph21.6 kmh 29.87 in1011.5 mb 0.00 in0.0 mm 0.00 in/hr0.0 mm/hr 0.00 in0.0 mm
11:41 AM 38.2°F3.4°C 25.5°F-3.6°C 60% 5.2 mph S8.4 kmh S 12.5 mph20.1 kmh 29.86 in1011.2 mb 0.00 in0.0 mm 0.00 in/hr0.0 mm/hr 0.00 in0.0 mm
11:49 AM 38.0°F3.3°C 26.5°F-3.1°C 63% 4.1 mph S6.6 kmh S 9.4 mph15.1 kmh 29.86 in1011.2 mb 0.00 in0.0 mm 0.00 in/hr0.0 mm/hr 0.00 in0.0 mm
11:54 AM 37.8°F3.2°C 27.1°F-2.7°C 65% 2.6 mph SSW4.2 kmh SSW 7.8 mph12.6 kmh 29.85 in1010.8 mb 0.00 in0.0 mm 0.00 in/hr0.0 mm/hr 0.00 in0.0 mm
12:00 PM 37.4°F3.0°C 28.3°F-2.1°C 69% 3.0 mph SSE4.8 kmh SSE 8.3 mph13.4 kmh 29.85 in1010.8 mb 0.00 in0.0 mm 0.00 in/hr0.0 mm/hr 0.00 in0.0 mm
12:06 PM 37.1°F2.8°C 28.3°F-2.1°C 70% 4.5 mph SSE7.2 kmh SSE 8.3 mph13.4 kmh 29.84 in1010.5 mb 0.00 in0.0 mm 0.00 in/hr0.0 mm/hr 0.00 in0.0 mm
12:11 PM 36.9°F2.7°C 28.7°F-1.8°C 72% 4.9 mph SSE7.9 kmh SSE 7.2 mph11.6 kmh 29.84 in1010.5 mb 0.00 in0.0 mm 0.00 in/hr0.0 mm/hr 0.00 in0.0 mm
12:17 PM 36.7°F2.6°C 29.2°F-1.6°C 74% 4.2 mph S6.8 kmh S 6.0 mph9.7 kmh 29.84 in1010.5 mb 0.00 in0.0 mm 0.00 in/hr0.0 mm/hr 0.00 in0.0 mm
12:22 PM 36.5°F2.5°C 29.0°F-1.7°C 74% 2.1 mph S3.4 kmh S 5.8 mph9.3 kmh 29.84 in1010.5 mb 0.00 in0.0 mm 0.00 in/hr0.0 mm/hr 0.00 in0.0 mm
12:27 PM 36.4°F2.4°C 29.2°F-1.6°C 75% 3.8 mph SSE6.1 kmh SSE 5.6 mph9.0 kmh 29.83 in1010.2 mb 0.00 in0.0 mm 0.00 in/hr0.0 mm/hr 0.00 in0.0 mm
12:32 PM 36.4°F2.4°C 28.8°F-1.8°C 74% 2.0 mph S3.2 kmh S 5.6 mph9.0 kmh 29.83 in1010.2 mb 0.00 in0.0 mm 0.00 in/hr0.0 mm/hr 0.00 in0.0 mm
12:39 PM 36.2°F2.3°C 29.4°F-1.4°C 76% 2.5 mph S4.0 kmh S 5.4 mph8.7 kmh 29.82 in1009.8 mb 0.00 in0.0 mm 0.00 in/hr0.0 mm/hr 0.00 in0.0 mm
12:45 PM 36.0°F2.2°C 29.8°F-1.2°C 78% 3.6 mph S5.8 kmh S 7.2 mph11.6 kmh 29.82 in1009.8 mb 0.00 in0.0 mm 0.00 in/hr0.0 mm/hr 0.00 in0.0 mm
12:50 PM 35.6°F2.0°C 29.1°F-1.6°C 77% 1.8 mph S2.9 kmh S 7.2 mph11.6 kmh 29.82 in1009.8 mb 0.00 in0.0 mm 0.00 in/hr0.0 mm/hr 0.00 in0.0 mm
12:55 PM 35.6°F2.0°C 29.4°F-1.4°C 78% 3.5 mph SSE5.6 kmh SSE 5.8 mph9.3 kmh 29.82 in1009.8 mb 0.00 in0.0 mm 0.00 in/hr0.0 mm/hr 0.00 in0.0 mm
01:00 PM 35.6°F2.0°C 29.7°F-1.3°C 79% 2.3 mph S3.7 kmh S 5.4 mph8.7 kmh 29.81 in1009.5 mb 0.00 in0.0 mm 0.00 in/hr0.0 mm/hr 0.00 in0.0 mm
01:05 PM 35.6°F2.0°C 29.4°F-1.4°C 78% 1.8 mph S2.9 kmh S 5.1 mph8.2 kmh 29.81 in1009.5 mb 0.01 in0.3 mm 0.12 in/hr3.0 mm/hr 0.02 in0.5 mm
01:10 PM 35.6°F2.0°C 29.7°F-1.3°C 79% 2.5 mph S4.0 kmh S 5.1 mph8.2 kmh 29.80 in1009.1 mb 0.01 in0.3 mm 0.00 in/hr0.0 mm/hr 0.02 in0.5 mm
01:15 PM 35.8°F2.1°C 30.2°F-1.0°C 80% 2.2 mph SSE3.5 kmh SSE 5.4 mph8.7 kmh 29.80 in1009.1 mb 0.01 in0.3 mm 0.00 in/hr0.0 mm/hr 0.02 in0.5 mm
01:20 PM 35.8°F2.1°C 31.2°F-0.4°C 83% 2.7 mph S4.3 kmh S 8.1 mph13.0 kmh 29.79 in1008.8 mb 0.01 in0.3 mm 0.00 in/hr0.0 mm/hr 0.02 in0.5 mm
01:25 PM 35.8°F2.1°C 31.4°F-0.3°C 84% 3.3 mph S5.3 kmh S 8.1 mph13.0 kmh 29.79 in1008.8 mb 0.01 in0.3 mm 0.00 in/hr0.0 mm/hr 0.02 in0.5 mm
01:30 PM 36.0°F2.2°C 31.0°F-0.6°C 82% 2.2 mph SSE3.5 kmh SSE 6.9 mph11.1 kmh 29.79 in1008.8 mb 0.01 in0.3 mm 0.00 in/hr0.0 mm/hr 0.02 in0.5 mm
01:35 PM 36.4°F2.4°C 31.3°F-0.4°C 82% 3.5 mph S5.6 kmh S 6.9 mph11.1 kmh 29.79 in1008.8 mb 0.01 in0.3 mm 0.00 in/hr0.0 mm/hr 0.02 in0.5 mm
01:40 PM 36.5°F2.5°C 32.1°F0.1°C 84% 4.2 mph S6.8 kmh S 6.9 mph11.1 kmh 29.78 in1008.5 mb 0.01 in0.3 mm 0.00 in/hr0.0 mm/hr 0.02 in0.5 mm
01:46 PM 36.7°F2.6°C 32.3°F0.2°C 84% 2.8 mph SW4.5 kmh SW 6.7 mph10.8 kmh 29.78 in1008.5 mb 0.01 in0.3 mm 0.00 in/hr0.0 mm/hr 0.02 in0.5 mm
01:50 PM 36.5°F2.5°C 32.1°F0.1°C 84% 3.6 mph SW5.8 kmh SW 5.4 mph8.7 kmh 29.78 in1008.5 mb 0.02 in0.5 mm 0.15 in/hr3.8 mm/hr 0.02 in0.5 mm
01:55 PM 36.4°F2.4°C 32.2°F0.1°C 85% 3.2 mph SSW5.1 kmh SSW 5.8 mph9.3 kmh 29.78 in1008.5 mb 0.02 in0.5 mm 0.00 in/hr0.0 mm/hr 0.02 in0.5 mm
02:01 PM 36.2°F2.3°C 32.0°F0.0°C 85% 6.5 mph S10.5 kmh S 9.4 mph15.1 kmh 29.78 in1008.5 mb 0.03 in0.8 mm 0.01 in/hr0.3 mm/hr 0.04 in1.0 mm
02:06 PM 35.6°F2.0°C 31.5°F-0.3°C 85% 3.0 mph SSW4.8 kmh SSW 9.4 mph15.1 kmh 29.78 in1008.5 mb 0.02 in0.5 mm 0.00 in/hr0.0 mm/hr 0.04 in1.0 mm
02:11 PM 35.3°F1.8°C 31.1°F-0.5°C 85% 2.5 mph S4.0 kmh S 6.0 mph9.7 kmh 29.77 in1008.1 mb 0.03 in0.8 mm 0.12 in/hr3.0 mm/hr 0.04 in1.0 mm
02:16 PM 35.3°F1.8°C 30.9°F-0.6°C 84% 2.3 mph SSW3.7 kmh SSW 4.9 mph7.9 kmh 29.77 in1008.1 mb 0.03 in0.8 mm 0.00 in/hr0.0 mm/hr 0.04 in1.0 mm
02:21 PM 35.1°F1.7°C 30.7°F-0.7°C 84% 2.0 mph S3.2 kmh S 4.7 mph7.6 kmh 29.77 in1008.1 mb 0.03 in0.8 mm 0.00 in/hr0.0 mm/hr 0.04 in1.0 mm
02:26 PM 35.1°F1.7°C 30.7°F-0.7°C 84% 2.6 mph SSE4.2 kmh SSE 4.7 mph7.6 kmh 29.76 in1007.8 mb 0.04 in1.0 mm 0.12 in/hr3.0 mm/hr 0.06 in1.5 mm
02:31 PM 34.9°F1.6°C 30.5°F-0.8°C 84% 3.5 mph SSE5.6 kmh SSE 5.4 mph8.7 kmh 29.76 in1007.8 mb 0.04 in1.0 mm 0.00 in/hr0.0 mm/hr 0.06 in1.5 mm
02:36 PM 34.9°F1.6°C 30.5°F-0.8°C 84% 2.2 mph S3.5 kmh S 5.4 mph8.7 kmh 29.76 in1007.8 mb 0.04 in1.0 mm 0.00 in/hr0.0 mm/hr 0.06 in1.5 mm
02:41 PM 35.3°F1.8°C 31.1°F-0.5°C 85% 2.7 mph SE4.3 kmh SE 5.1 mph8.2 kmh 29.75 in1007.5 mb 0.05 in1.3 mm 0.12 in/hr3.0 mm/hr 0.07 in1.8 mm
02:47 PM 35.3°F1.8°C 31.4°F-0.3°C 86% 2.1 mph S3.4 kmh S 5.1 mph8.2 kmh 29.75 in1007.5 mb 0.05 in1.3 mm 0.00 in/hr0.0 mm/hr 0.07 in1.8 mm
02:52 PM 35.5°F1.9°C 31.6°F-0.2°C 86% 2.4 mph SSE3.9 kmh SSE 4.9 mph7.9 kmh 29.74 in1007.1 mb 0.04 in1.0 mm 0.00 in/hr0.0 mm/hr 0.07 in1.8 mm
02:57 PM 36.0°F2.2°C 32.4°F0.2°C 87% 2.6 mph S4.2 kmh S 4.9 mph7.9 kmh 29.74 in1007.1 mb 0.03 in0.8 mm 0.00 in/hr0.0 mm/hr 0.07 in1.8 mm
03:02 PM 36.2°F2.3°C 32.6°F0.3°C 87% 3.1 mph SE5.0 kmh SE 5.4 mph8.7 kmh 29.74 in1007.1 mb 0.03 in0.8 mm 0.00 in/hr0.0 mm/hr 0.07 in1.8 mm
03:07 PM 36.4°F2.4°C 32.8°F0.4°C 87% 3.8 mph SSE6.1 kmh SSE 5.4 mph8.7 kmh 29.74 in1007.1 mb 0.02 in0.5 mm 0.00 in/hr0.0 mm/hr 0.07 in1.8 mm
03:12 PM 36.7°F2.6°C 33.1°F0.6°C 87% 2.2 mph SW3.5 kmh SW 5.1 mph8.2 kmh 29.74 in1007.1 mb 0.02 in0.5 mm 0.00 in/hr0.0 mm/hr 0.07 in1.8 mm
03:17 PM 36.9°F2.7°C 33.0°F0.6°C 86% 3.0 mph SSE4.8 kmh SSE 4.7 mph7.6 kmh 29.74 in1007.1 mb 0.02 in0.5 mm 0.00 in/hr0.0 mm/hr 0.07 in1.8 mm
03:22 PM 37.3°F2.9°C 33.4°F0.8°C 86% 2.5 mph S4.0 kmh S 4.0 mph6.4 kmh 29.74 in1007.1 mb 0.01 in0.3 mm 0.00 in/hr0.0 mm/hr 0.07 in1.8 mm
03:27 PM 37.8°F3.2°C 33.9°F1.1°C 86% 1.5 mph SSW2.4 kmh SSW 4.0 mph6.4 kmh 29.74 in1007.1 mb 0.01 in0.3 mm 0.00 in/hr0.0 mm/hr 0.07 in1.8 mm
03:32 PM 38.3°F3.5°C 34.5°F1.4°C 86% 1.3 mph SSW2.1 kmh SSW 4.0 mph6.4 kmh 29.74 in1007.1 mb 0.01 in0.3 mm 0.00 in/hr0.0 mm/hr 0.07 in1.8 mm
03:37 PM 38.5°F3.6°C 34.1°F1.2°C 84% 1.0 mph SE1.6 kmh SE 4.0 mph6.4 kmh 29.73 in1006.8 mb 0.01 in0.3 mm 0.00 in/hr0.0 mm/hr 0.07 in1.8 mm
03:42 PM 38.7°F3.7°C 34.3°F1.3°C 84% 1.0 mph S1.6 kmh S 2.2 mph3.5 kmh 29.73 in1006.8 mb 0.00 in0.0 mm 0.00 in/hr0.0 mm/hr 0.07 in1.8 mm
03:47 PM 38.9°F3.8°C 34.5°F1.4°C 84% 1.0 mph SSE1.6 kmh SSE 2.5 mph4.0 kmh 29.73 in1006.8 mb 0.00 in0.0 mm 0.00 in/hr0.0 mm/hr 0.07 in1.8 mm
03:53 PM 38.9°F3.8°C 34.5°F1.4°C 84% 0.9 mph S1.4 kmh S 2.5 mph4.0 kmh 29.73 in1006.8 mb 0.00 in0.0 mm 0.00 in/hr0.0 mm/hr 0.07 in1.8 mm
03:58 PM 38.9°F3.8°C 34.5°F1.4°C 84% 0.2 mph SW0.3 kmh SW 1.3 mph2.1 kmh 29.73 in1006.8 mb 0.00 in0.0 mm 0.00 in/hr0.0 mm/hr 0.07 in1.8 mm
04:03 PM 39.1°F3.9°C 34.4°F1.3°C 83% 0.2 mph WSW0.3 kmh WSW 1.1 mph1.8 kmh 29.72 in1006.4 mb 0.00 in0.0 mm 0.00 in/hr0.0 mm/hr 0.07 in1.8 mm
04:08 PM 39.2°F4.0°C 34.8°F1.6°C 84% 0.2 mph SW0.3 kmh SW 0.7 mph1.1 kmh 29.72 in1006.4 mb 0.00 in0.0 mm 0.00 in/hr0.0 mm/hr 0.07 in1.8 mm
04:13 PM 39.4°F4.1°C 35.0°F1.7°C 84% 0.8 mph S1.3 kmh S 1.6 mph2.6 kmh 29.72 in1006.4 mb 0.00 in0.0 mm 0.00 in/hr0.0 mm/hr 0.07 in1.8 mm
04:18 PM 39.6°F4.2°C 35.2°F1.8°C 84% 1.0 mph SW1.6 kmh SW 1.8 mph2.9 kmh 29.72 in1006.4 mb 0.00 in0.0 mm 0.00 in/hr0.0 mm/hr 0.07 in1.8 mm
04:23 PM 40.0°F4.4°C 35.8°F2.1°C 85% 0.9 mph SW1.4 kmh SW 2.5 mph4.0 kmh 29.72 in1006.4 mb 0.00 in0.0 mm 0.00 in/hr0.0 mm/hr 0.07 in1.8 mm
04:28 PM 40.1°F4.5°C 35.6°F2.0°C 84% 1.3 mph SSW2.1 kmh SSW 2.5 mph4.0 kmh 29.72 in1006.4 mb 0.00 in0.0 mm 0.00 in/hr0.0 mm/hr 0.07 in1.8 mm
04:33 PM 40.5°F4.7°C 36.0°F2.2°C 84% 1.2 mph SSW1.9 kmh SSW 4.0 mph6.4 kmh 29.72 in1006.4 mb 0.00 in0.0 mm 0.00 in/hr0.0 mm/hr 0.07 in1.8 mm
04:38 PM 40.7°F4.8°C 36.2°F2.3°C 84% 1.6 mph SW2.6 kmh SW 4.0 mph6.4 kmh 29.72 in1006.4 mb 0.00 in0.0 mm 0.00 in/hr0.0 mm/hr 0.07 in1.8 mm
04:43 PM 41.2°F5.1°C 36.7°F2.6°C 84% 3.3 mph SSW5.3 kmh SSW 4.7 mph7.6 kmh 29.72 in1006.4 mb 0.00 in0.0 mm 0.00 in/hr0.0 mm/hr 0.07 in1.8 mm
04:48 PM 41.6°F5.3°C 36.5°F2.5°C 82% 3.3 mph SSW5.3 kmh SSW 4.7 mph7.6 kmh 29.72 in1006.4 mb 0.00 in0.0 mm 0.00 in/hr0.0 mm/hr 0.07 in1.8 mm
04:53 PM 41.9°F5.5°C 37.1°F2.8°C 83% 3.6 mph SW5.8 kmh SW 5.1 mph8.2 kmh 29.72 in1006.4 mb 0.00 in0.0 mm 0.00 in/hr0.0 mm/hr 0.07 in1.8 mm
04:58 PM 42.3°F5.7°C 36.8°F2.7°C 81% 3.0 mph SW4.8 kmh SW 5.1 mph8.2 kmh 29.72 in1006.4 mb 0.00 in0.0 mm 0.00 in/hr0.0 mm/hr 0.07 in1.8 mm
05:03 PM 42.7°F5.9°C 37.2°F2.9°C 81% 3.8 mph SW6.1 kmh SW 5.4 mph8.7 kmh 29.72 in1006.4 mb 0.00 in0.0 mm 0.00 in/hr0.0 mm/hr 0.07 in1.8 mm
05:08 PM 42.8°F6.0°C 37.1°F2.8°C 80% 3.8 mph SW6.1 kmh SW 6.9 mph11.1 kmh 29.72 in1006.4 mb 0.00 in0.0 mm 0.00 in/hr0.0 mm/hr 0.07 in1.8 mm
05:13 PM 43.2°F6.2°C 37.4°F3.0°C 80% 3.6 mph SSW5.8 kmh SSW 6.9 mph11.1 kmh 29.73 in1006.8 mb 0.00 in0.0 mm 0.00 in/hr0.0 mm/hr 0.07 in1.8 mm
05:18 PM 43.6°F6.4°C 37.4°F3.0°C 79% 4.4 mph SW7.1 kmh SW 8.5 mph13.7 kmh 29.73 in1006.8 mb 0.00 in0.0 mm 0.00 in/hr0.0 mm/hr 0.07 in1.8 mm
05:23 PM 43.6°F6.4°C 37.4°F3.0°C 79% 6.4 mph SW10.3 kmh SW 10.3 mph16.6 kmh 29.73 in1006.8 mb 0.00 in0.0 mm 0.00 in/hr0.0 mm/hr 0.07 in1.8 mm
05:28 PM 43.4°F6.3°C 37.6°F3.1°C 80% 4.8 mph WSW7.7 kmh WSW 10.3 mph16.6 kmh 29.73 in1006.8 mb 0.00 in0.0 mm 0.00 in/hr0.0 mm/hr 0.07 in1.8 mm
05:33 PM 43.4°F6.3°C 37.9°F3.3°C 81% 6.0 mph SSW9.7 kmh SSW 8.5 mph13.7 kmh 29.73 in1006.8 mb 0.00 in0.0 mm 0.00 in/hr0.0 mm/hr 0.07 in1.8 mm
05:38 PM 43.2°F6.2°C 37.7°F3.2°C 81% 5.8 mph SW9.3 kmh SW 8.5 mph13.7 kmh 29.73 in1006.8 mb 0.00 in0.0 mm 0.00 in/hr0.0 mm/hr 0.07 in1.8 mm
05:43 PM 43.2°F6.2°C 37.7°F3.2°C 81% 4.2 mph SSW6.8 kmh SSW 8.3 mph13.4 kmh 29.73 in1006.8 mb 0.00 in0.0 mm 0.00 in/hr0.0 mm/hr 0.07 in1.8 mm
05:48 PM 43.0°F6.1°C 37.9°F3.3°C 82% 3.1 mph SW5.0 kmh SW 6.0 mph9.7 kmh 29.74 in1007.1 mb 0.00 in0.0 mm 0.00 in/hr0.0 mm/hr 0.07 in1.8 mm
05:53 PM 43.0°F6.1°C 37.9°F3.3°C 82% 3.0 mph SW4.8 kmh SW 6.0 mph9.7 kmh 29.74 in1007.1 mb 0.00 in0.0 mm 0.00 in/hr0.0 mm/hr 0.07 in1.8 mm
05:58 PM 42.8°F6.0°C 37.7°F3.2°C 82% 2.4 mph S3.9 kmh S 4.9 mph7.9 kmh 29.74 in1007.1 mb 0.00 in0.0 mm 0.00 in/hr0.0 mm/hr 0.07 in1.8 mm
06:03 PM 42.8°F6.0°C 37.7°F3.2°C 82% 2.7 mph S4.3 kmh S 4.9 mph7.9 kmh 29.74 in1007.1 mb 0.00 in0.0 mm 0.00 in/hr0.0 mm/hr 0.07 in1.8 mm
06:08 PM 43.0°F6.1°C 37.9°F3.3°C 82% 4.5 mph WSW7.2 kmh WSW 6.3 mph10.1 kmh 29.74 in1007.1 mb 0.00 in0.0 mm 0.00 in/hr0.0 mm/hr 0.07 in1.8 mm
06:13 PM 43.2°F6.2°C 38.1°F3.4°C 82% 3.0 mph SW4.8 kmh SW 6.3 mph10.1 kmh 29.74 in1007.1 mb 0.00 in0.0 mm 0.00 in/hr0.0 mm/hr 0.07 in1.8 mm
06:18 PM 43.2°F6.2°C 38.1°F3.4°C 82% 3.0 mph SW4.8 kmh SW 6.3 mph10.1 kmh 29.74 in1007.1 mb 0.00 in0.0 mm 0.00 in/hr0.0 mm/hr 0.07 in1.8 mm
06:23 PM 43.4°F6.3°C 37.9°F3.3°C 81% 4.2 mph SW6.8 kmh SW 5.6 mph9.0 kmh 29.74 in1007.1 mb 0.00 in0.0 mm 0.00 in/hr0.0 mm/hr 0.07 in1.8 mm
06:28 PM 43.4°F6.3°C 37.9°F3.3°C 81% 1.5 mph SSW2.4 kmh SSW 4.7 mph7.6 kmh 29.74 in1007.1 mb 0.00 in0.0 mm 0.00 in/hr0.0 mm/hr 0.07 in1.8 mm
06:33 PM 43.4°F6.3°C 37.9°F3.3°C 81% 2.1 mph SW3.4 kmh SW 4.7 mph7.6 kmh 29.74 in1007.1 mb 0.00 in0.0 mm 0.00 in/hr0.0 mm/hr 0.07 in1.8 mm
06:38 PM 43.4°F6.3°C 37.9°F3.3°C 81% 2.0 mph SW3.2 kmh SW 3.4 mph5.5 kmh 29.74 in1007.1 mb 0.00 in0.0 mm 0.00 in/hr0.0 mm/hr 0.07 in1.8 mm
06:43 PM 43.6°F6.4°C 38.1°F3.4°C 81% 1.6 mph SW2.6 kmh SW 4.0 mph6.4 kmh 29.74 in1007.1 mb 0.00 in0.0 mm 0.00 in/hr0.0 mm/hr 0.07 in1.8 mm
06:48 PM 43.6°F6.4°C 38.1°F3.4°C 81% 2.2 mph SSW3.5 kmh SSW 4.5 mph7.2 kmh 29.74 in1007.1 mb 0.00 in0.0 mm 0.00 in/hr0.0 mm/hr 0.07 in1.8 mm
06:53 PM 43.6°F6.4°C 38.1°F3.4°C 81% 1.2 mph SW1.9 kmh SW 5.1 mph8.2 kmh 29.74 in1007.1 mb 0.00 in0.0 mm 0.00 in/hr0.0 mm/hr 0.07 in1.8 mm
06:59 PM 43.6°F6.4°C 38.1°F3.4°C 81% 2.5 mph SSW4.0 kmh SSW 5.1 mph8.2 kmh 29.74 in1007.1 mb 0.00 in0.0 mm 0.00 in/hr0.0 mm/hr 0.07 in1.8 mm
07:04 PM 43.6°F6.4°C 38.1°F3.4°C 81% 2.3 mph SW3.7 kmh SW 4.3 mph6.9 kmh 29.74 in1007.1 mb 0.00 in0.0 mm 0.00 in/hr0.0 mm/hr 0.07 in1.8 mm
07:08 PM 43.7°F6.5°C 38.0°F3.3°C 80% 2.6 mph SSW4.2 kmh SSW 7.4 mph11.9 kmh 29.74 in1007.1 mb 0.00 in0.0 mm 0.00 in/hr0.0 mm/hr 0.07 in1.8 mm
07:14 PM 43.9°F6.6°C 38.2°F3.4°C 80% 3.4 mph SW5.5 kmh SW 7.4 mph11.9 kmh 29.74 in1007.1 mb 0.00 in0.0 mm 0.00 in/hr0.0 mm/hr 0.07 in1.8 mm
07:19 PM 43.9°F6.6°C 37.8°F3.2°C 79% 1.3 mph SW2.1 kmh SW 4.9 mph7.9 kmh 29.74 in1007.1 mb 0.00 in0.0 mm 0.00 in/hr0.0 mm/hr 0.07 in1.8 mm
07:24 PM 44.1°F6.7°C 38.0°F3.3°C 79% 2.4 mph S3.9 kmh S 5.1 mph8.2 kmh 29.74 in1007.1 mb 0.00 in0.0 mm 0.00 in/hr0.0 mm/hr 0.07 in1.8 mm
07:29 PM 44.1°F6.7°C 38.0°F3.3°C 79% 2.1 mph WSW3.4 kmh WSW 6.9 mph11.1 kmh 29.74 in1007.1 mb 0.00 in0.0 mm 0.00 in/hr0.0 mm/hr 0.07 in1.8 mm
07:34 PM 44.3°F6.8°C 37.8°F3.2°C 78% 2.5 mph SW4.0 kmh SW 6.9 mph11.1 kmh 29.74 in1007.1 mb 0.00 in0.0 mm 0.00 in/hr0.0 mm/hr 0.07 in1.8 mm
07:39 PM 44.3°F6.8°C 37.8°F3.2°C 78% 1.6 mph SW2.6 kmh SW 6.3 mph10.1 kmh 29.74 in1007.1 mb 0.00 in0.0 mm 0.00 in/hr0.0 mm/hr 0.07 in1.8 mm
07:44 PM 44.3°F6.8°C 37.5°F3.1°C 77% 3.0 mph WSW4.8 kmh WSW 6.3 mph10.1 kmh 29.74 in1007.1 mb 0.00 in0.0 mm 0.00 in/hr0.0 mm/hr 0.07 in1.8 mm
07:49 PM 44.5°F6.9°C 37.7°F3.2°C 77% 3.2 mph SW5.1 kmh SW 5.4 mph8.7 kmh 29.74 in1007.1 mb 0.00 in0.0 mm 0.00 in/hr0.0 mm/hr 0.07 in1.8 mm
07:54 PM 44.5°F6.9°C 37.7°F3.2°C 77% 2.7 mph SW4.3 kmh SW 5.4 mph8.7 kmh 29.75 in1007.5 mb 0.00 in0.0 mm 0.00 in/hr0.0 mm/hr 0.07 in1.8 mm
07:59 PM 44.6°F7.0°C 37.5°F3.1°C 76% 3.5 mph SW5.6 kmh SW 5.8 mph9.3 kmh 29.74 in1007.1 mb 0.00 in0.0 mm 0.00 in/hr0.0 mm/hr 0.07 in1.8 mm
08:04 PM 44.6°F7.0°C 37.5°F3.1°C 76% 1.8 mph SW2.9 kmh SW 5.8 mph9.3 kmh 29.74 in1007.1 mb 0.00 in0.0 mm 0.00 in/hr0.0 mm/hr 0.07 in1.8 mm
08:09 PM 44.6°F7.0°C 37.5°F3.1°C 76% 1.7 mph SW2.7 kmh SW 5.4 mph8.7 kmh 29.75 in1007.5 mb 0.00 in0.0 mm 0.00 in/hr0.0 mm/hr 0.07 in1.8 mm
08:14 PM 44.5°F6.9°C 37.4°F3.0°C 76% 2.0 mph SSW3.2 kmh SSW 4.0 mph6.4 kmh 29.74 in1007.1 mb 0.00 in0.0 mm 0.00 in/hr0.0 mm/hr 0.07 in1.8 mm
08:19 PM 44.5°F6.9°C 37.4°F3.0°C 76% 1.5 mph SW2.4 kmh SW 4.0 mph6.4 kmh 29.74 in1007.1 mb 0.00 in0.0 mm 0.00 in/hr0.0 mm/hr 0.07 in1.8 mm
08:24 PM 44.5°F6.9°C 37.4°F3.0°C 76% 2.2 mph SW3.5 kmh SW 4.0 mph6.4 kmh 29.74 in1007.1 mb 0.00 in0.0 mm 0.00 in/hr0.0 mm/hr 0.07 in1.8 mm
08:29 PM 44.5°F6.9°C 37.7°F3.2°C 77% 1.7 mph SW2.7 kmh SW 4.0 mph6.4 kmh 29.74 in1007.1 mb 0.00 in0.0 mm 0.00 in/hr0.0 mm/hr 0.07 in1.8 mm
08:34 PM 44.5°F6.9°C 37.7°F3.2°C 77% 2.5 mph SW4.0 kmh SW 5.4 mph8.7 kmh 29.74 in1007.1 mb 0.00 in0.0 mm 0.00 in/hr0.0 mm/hr 0.07 in1.8 mm
08:39 PM 44.6°F7.0°C 37.5°F3.1°C 76% 2.8 mph SW4.5 kmh SW 5.4 mph8.7 kmh 29.74 in1007.1 mb 0.00 in0.0 mm 0.00 in/hr0.0 mm/hr 0.07 in1.8 mm
08:44 PM 44.6°F7.0°C 37.5°F3.1°C 76% 2.8 mph SSW4.5 kmh SSW 6.7 mph10.8 kmh 29.74 in1007.1 mb 0.00 in0.0 mm 0.00 in/hr0.0 mm/hr 0.07 in1.8 mm
08:49 PM 44.8°F7.1°C 37.7°F3.2°C 76% 3.2 mph SSW5.1 kmh SSW 6.7 mph10.8 kmh 29.74 in1007.1 mb 0.00 in0.0 mm 0.00 in/hr0.0 mm/hr 0.07 in1.8 mm
08:54 PM 44.8°F7.1°C 37.4°F3.0°C 75% 5.1 mph SW8.2 kmh SW 10.5 mph16.9 kmh 29.74 in1007.1 mb 0.00 in0.0 mm 0.00 in/hr0.0 mm/hr 0.07 in1.8 mm
08:59 PM 45.0°F7.2°C 37.2°F2.9°C 74% 4.6 mph SW7.4 kmh SW 10.5 mph16.9 kmh 29.74 in1007.1 mb 0.00 in0.0 mm 0.00 in/hr0.0 mm/hr 0.07 in1.8 mm
09:04 PM 45.0°F7.2°C 37.2°F2.9°C 74% 4.2 mph SW6.8 kmh SW 6.5 mph10.5 kmh 29.74 in1007.1 mb 0.00 in0.0 mm 0.00 in/hr0.0 mm/hr 0.07 in1.8 mm
09:09 PM 45.0°F7.2°C 37.2°F2.9°C 74% 4.0 mph SSW6.4 kmh SSW 6.7 mph10.8 kmh 29.74 in1007.1 mb 0.00 in0.0 mm 0.00 in/hr0.0 mm/hr 0.07 in1.8 mm
09:14 PM 45.2°F7.3°C 37.0°F2.8°C 73% 8.0 mph WSW12.9 kmh WSW 13.0 mph20.9 kmh 29.74 in1007.1 mb 0.00 in0.0 mm 0.00 in/hr0.0 mm/hr 0.07 in1.8 mm
09:19 PM 45.2°F7.3°C 37.0°F2.8°C 73% 6.1 mph WSW9.8 kmh WSW 13.0 mph20.9 kmh 29.74 in1007.1 mb 0.00 in0.0 mm 0.00 in/hr0.0 mm/hr 0.07 in1.8 mm
09:24 PM 45.2°F7.3°C 37.0°F2.8°C 73% 3.5 mph SW5.6 kmh SW 8.3 mph13.4 kmh 29.74 in1007.1 mb 0.00 in0.0 mm 0.00 in/hr0.0 mm/hr 0.07 in1.8 mm
09:29 PM 45.2°F7.3°C 36.7°F2.6°C 72% 5.3 mph SW8.5 kmh SW 7.6 mph12.2 kmh 29.74 in1007.1 mb 0.00 in0.0 mm 0.00 in/hr0.0 mm/hr 0.07 in1.8 mm
09:34 PM 45.2°F7.3°C 36.7°F2.6°C 72% 5.1 mph SW8.2 kmh SW 8.3 mph13.4 kmh 29.74 in1007.1 mb 0.00 in0.0 mm 0.00 in/hr0.0 mm/hr 0.07 in1.8 mm
09:39 PM 45.2°F7.3°C 36.4°F2.4°C 71% 7.3 mph SW11.7 kmh SW 10.7 mph17.2 kmh 29.74 in1007.1 mb 0.00 in0.0 mm 0.00 in/hr0.0 mm/hr 0.07 in1.8 mm
09:44 PM 45.2°F7.3°C 36.7°F2.6°C 72% 4.8 mph WSW7.7 kmh WSW 10.7 mph17.2 kmh 29.74 in1007.1 mb 0.00 in0.0 mm 0.00 in/hr0.0 mm/hr 0.07 in1.8 mm
09:49 PM 45.4°F7.4°C 36.6°F2.6°C 71% 7.0 mph SW11.3 kmh SW 10.1 mph16.3 kmh 29.74 in1007.1 mb 0.00 in0.0 mm 0.00 in/hr0.0 mm/hr 0.07 in1.8 mm
09:54 PM 45.4°F7.4°C 36.6°F2.6°C 71% 6.0 mph WSW9.7 kmh WSW 10.1 mph16.3 kmh 29.74 in1007.1 mb 0.00 in0.0 mm 0.00 in/hr0.0 mm/hr 0.07 in1.8 mm
09:59 PM 45.4°F7.4°C 36.6°F2.6°C 71% 5.7 mph WSW9.2 kmh WSW 9.4 mph15.1 kmh 29.74 in1007.1 mb 0.00 in0.0 mm 0.00 in/hr0.0 mm/hr 0.07 in1.8 mm
10:04 PM 45.4°F7.4°C 36.6°F2.6°C 71% 4.5 mph SW7.2 kmh SW 9.2 mph14.8 kmh 29.74 in1007.1 mb 0.00 in0.0 mm 0.00 in/hr0.0 mm/hr 0.07 in1.8 mm
10:09 PM 45.4°F7.4°C 36.6°F2.6°C 71% 5.7 mph SW9.2 kmh SW 11.0 mph17.7 kmh 29.73 in1006.8 mb 0.00 in0.0 mm 0.00 in/hr0.0 mm/hr 0.07 in1.8 mm
10:14 PM 45.2°F7.3°C 36.4°F2.4°C 71% 6.1 mph SW9.8 kmh SW 11.0 mph17.7 kmh 29.73 in1006.8 mb 0.00 in0.0 mm 0.00 in/hr0.0 mm/hr 0.07 in1.8 mm
10:19 PM 45.2°F7.3°C 36.4°F2.4°C 71% 4.0 mph WSW6.4 kmh WSW 8.1 mph13.0 kmh 29.73 in1006.8 mb 0.00 in0.0 mm 0.00 in/hr0.0 mm/hr 0.07 in1.8 mm
10:24 PM 45.2°F7.3°C 36.0°F2.2°C 70% 4.0 mph SW6.4 kmh SW 6.9 mph11.1 kmh 29.73 in1006.8 mb 0.00 in0.0 mm 0.00 in/hr0.0 mm/hr 0.07 in1.8 mm
10:29 PM 45.2°F7.3°C 36.4°F2.4°C 71% 4.3 mph SW6.9 kmh SW 7.2 mph11.6 kmh 29.73 in1006.8 mb 0.00 in0.0 mm 0.00 in/hr0.0 mm/hr 0.07 in1.8 mm
10:34 PM 45.2°F7.3°C 36.4°F2.4°C 71% 4.6 mph WSW7.4 kmh WSW 9.4 mph15.1 kmh 29.73 in1006.8 mb 0.00 in0.0 mm 0.00 in/hr0.0 mm/hr 0.07 in1.8 mm
10:39 PM 45.0°F7.2°C 36.2°F2.3°C 71% 4.1 mph SW6.6 kmh SW 9.4 mph15.1 kmh 29.73 in1006.8 mb 0.00 in0.0 mm 0.00 in/hr0.0 mm/hr 0.07 in1.8 mm
10:44 PM 45.0°F7.2°C 36.6°F2.6°C 72% 3.5 mph SW5.6 kmh SW 7.4 mph11.9 kmh 29.73 in1006.8 mb 0.00 in0.0 mm 0.00 in/hr0.0 mm/hr 0.07 in1.8 mm
10:49 PM 45.2°F7.3°C 36.7°F2.6°C 72% 7.1 mph SW11.4 kmh SW 11.4 mph18.3 kmh 29.73 in1006.8 mb 0.00 in0.0 mm 0.00 in/hr0.0 mm/hr 0.07 in1.8 mm
10:54 PM 45.0°F7.2°C 36.6°F2.6°C 72% 5.3 mph SSW8.5 kmh SSW 11.4 mph18.3 kmh 29.73 in1006.8 mb 0.00 in0.0 mm 0.00 in/hr0.0 mm/hr 0.07 in1.8 mm
10:59 PM 45.0°F7.2°C 36.6°F2.6°C 72% 3.0 mph SW4.8 kmh SW 8.7 mph14.0 kmh 29.73 in1006.8 mb 0.00 in0.0 mm 0.00 in/hr0.0 mm/hr 0.07 in1.8 mm
11:04 PM 45.0°F7.2°C 36.6°F2.6°C 72% 5.4 mph SSW8.7 kmh SSW 10.7 mph17.2 kmh 29.73 in1006.8 mb 0.00 in0.0 mm 0.00 in/hr0.0 mm/hr 0.07 in1.8 mm
11:09 PM 45.0°F7.2°C 36.6°F2.6°C 72% 3.8 mph SW6.1 kmh SW 11.4 mph18.3 kmh 29.73 in1006.8 mb 0.00 in0.0 mm 0.00 in/hr0.0 mm/hr 0.07 in1.8 mm
11:15 PM 45.0°F7.2°C 36.6°F2.6°C 72% 4.6 mph SSW7.4 kmh SSW 11.4 mph18.3 kmh 29.73 in1006.8 mb 0.00 in0.0 mm 0.00 in/hr0.0 mm/hr 0.07 in1.8 mm
11:20 PM 45.0°F7.2°C 36.6°F2.6°C 72% 4.2 mph SSW6.8 kmh SSW 8.1 mph13.0 kmh 29.73 in1006.8 mb 0.00 in0.0 mm 0.00 in/hr0.0 mm/hr 0.07 in1.8 mm
11:25 PM 45.0°F7.2°C 36.2°F2.3°C 71% 5.5 mph WSW8.9 kmh WSW 9.2 mph14.8 kmh 29.73 in1006.8 mb 0.00 in0.0 mm 0.00 in/hr0.0 mm/hr 0.07 in1.8 mm
11:30 PM 45.0°F7.2°C 36.6°F2.6°C 72% 4.3 mph SW6.9 kmh SW 9.2 mph14.8 kmh 29.73 in1006.8 mb 0.00 in0.0 mm 0.00 in/hr0.0 mm/hr 0.07 in1.8 mm
11:35 PM 45.0°F7.2°C 36.6°F2.6°C 72% 6.1 mph SW9.8 kmh SW 8.5 mph13.7 kmh 29.73 in1006.8 mb 0.00 in0.0 mm 0.00 in/hr0.0 mm/hr 0.07 in1.8 mm
11:40 PM 45.0°F7.2°C 36.6°F2.6°C 72% 4.4 mph SW7.1 kmh SW 8.5 mph13.7 kmh 29.72 in1006.4 mb 0.00 in0.0 mm 0.00 in/hr0.0 mm/hr 0.07 in1.8 mm
11:45 PM 45.0°F7.2°C 36.6°F2.6°C 72% 4.3 mph SW6.9 kmh SW 7.6 mph12.2 kmh 29.72 in1006.4 mb 0.00 in0.0 mm 0.00 in/hr0.0 mm/hr 0.07 in1.8 mm
11:50 PM 45.0°F7.2°C 36.6°F2.6°C 72% 6.0 mph SW9.7 kmh SW 10.7 mph17.2 kmh 29.72 in1006.4 mb 0.00 in0.0 mm 0.00 in/hr0.0 mm/hr 0.07 in1.8 mm
11:55 PM 45.0°F7.2°C 36.6°F2.6°C 72% 4.1 mph SSW6.6 kmh SSW 10.7 mph17.2 kmh 29.72 in1006.4 mb 0.00 in0.0 mm 0.00 in/hr0.0 mm/hr 0.07 in1.8 mm